Latest Weather Observations for Nullarbor

IDS60801

Issued at 5:31 pm CST Friday 29 May 2015 (issued every 30 minutes, with the page automatically refreshed every 10 minutes)

About weather observations | Map of weather stations | Latest weather observations for SA | Other Formats
Station Details ID: 018106 Name: NULLARBOR Lat: -31.45 Lon: 130.90 Height: 64.0 m
Data from the previous 72 hours. | See also: Recent months at Nullarbor
Date/Time
CST
Temp
°C
App
Temp
°C
Dew
Point
Rel
Hum
%
Delta-T
°C
Wind Press
QNH
hPa
Press
MSL
hPa
Rain
since 9 am
mm
Dir
 
Spd
km/h
Gust
km/h
Spd
kts
Gust
kts
29/05:30pm 15.5 11.4 10.1 70 2.8 SE 22 26 12 14 1024.5 1024.4 0.2
29/05:00pm 15.9 11.8 10.2 69 3.0 SE 22 28 12 15 1024.4 1024.3 0.2
29/04:30pm 16.4 12.4 10.3 67 3.2 SE 22 28 12 15 1023.9 1023.8 0.2
29/04:00pm 16.9 12.3 9.8 63 3.7 SSE 24 30 13 16 1023.9 1023.8 0.2
29/03:30pm 17.7 14.0 10.3 62 3.9 SE 20 28 11 15 1024.0 1023.9 0.2
29/03:00pm 17.3 13.6 10.0 62 3.8 SE 20 28 11 15 1024.0 1023.9 0.2
29/02:30pm 17.3 13.7 10.7 65 3.5 SE 20 28 11 15 1024.2 1024.1 0.2
29/02:00pm 17.4 13.7 11.4 68 3.3 SE 22 28 12 15 1024.5 1024.4 0.2
29/01:30pm 16.6 13.5 11.5 72 2.8 SE 19 26 10 14 1024.8 1024.7 0.2
29/01:00pm 15.7 12.4 11.7 77 2.2 SE 20 24 11 13 1024.9 1024.8 0.2
29/12:30pm 15.4 12.2 11.8 79 1.9 SE 20 26 11 14 1025.5 1025.4 0.2
29/12:00pm 14.8 12.6 13.3 91 0.8 SSE 17 22 9 12 1025.9 1025.8 0.2
29/11:30am 15.3 12.8 12.4 83 1.6 S 17 20 9 11 1026.1 1026.0 0.2
29/11:00am 15.9 13.2 11.7 76 2.3 SE 17 24 9 13 1026.2 1026.1 0.0
29/10:30am 16.1 14.4 12.5 79 2.0 E 13 17 7 9 1026.2 1026.1 0.0
29/10:00am 15.0 14.8 14.8 99 0.1 E 9 13 5 7 1026.5 1026.4 0.0
29/09:30am 13.5 13.2 13.3 99 0.1 NE 7 11 4 6 1026.3 1026.2 0.0
29/09:00am 12.6 11.6 12.4 99 0.1 E 9 11 5 6 1025.7 1025.6 0.0
29/08:30am 11.8 11.0 11.6 99 0.1 E 7 9 4 5 1025.5 1025.4 0.0
29/08:00am 11.5 10.6 11.3 99 0.1 E 7 9 4 5 1025.3 1025.2 0.0
29/07:30am 11.1 9.7 10.9 99 0.1 E 9 11 5 6 1024.8 1024.7 0.0
29/07:00am 11.4 10.5 11.2 99 0.1 ENE 7 9 4 5 1024.6 1024.5 0.0
29/06:30am 10.8 8.9 10.6 99 0.1 ENE 11 13 6 7 1024.3 1024.2 0.0
29/06:01am 11.7 10.8 11.5 99 0.1 NE 7 9 4 5 1024.4 1024.3 0.0
29/06:00am 11.8 11.0 11.6 99 0.1 NE 7 9 4 5 1024.4 1024.3 0.0
29/05:30am 11.3 10.0 11.1 99 0.1 NNE 9 11 5 6 1024.4 1024.3 0.0
29/05:00am 11.7 10.8 11.4 98 0.2 NE 7 7 4 4 1024.0 1023.9 0.0
29/04:30am 11.8 10.6 11.5 98 0.2 ENE 9 9 5 5 1023.9 1023.8 0.0
29/04:00am 11.9 10.7 11.6 98 0.2 SSE 9 11 5 6 1024.1 1024.0 0.0
29/03:30am 12.0 10.4 11.7 98 0.2 SE 11 13 6 7 1024.2 1024.1 0.0
29/03:00am 11.6 10.3 11.1 97 0.3 SE 9 11 5 6 1024.3 1024.2 0.0
29/02:30am 12.2 11.1 11.9 98 0.2 SSE 9 11 5 6 1024.4 1024.3 0.0
29/02:00am 12.2 11.0 11.7 97 0.3 SSE 9 11 5 6 1024.2 1024.1 0.0
29/01:30am 12.4 10.5 11.8 96 0.3 SSE 13 17 7 9 1024.0 1023.9 0.0
29/01:00am 12.7 11.6 11.9 95 0.4 SSE 9 11 5 6 1024.4 1024.3 0.0
29/12:30am 12.8 11.3 11.9 94 0.5 SSE 11 15 6 8 1024.0 1023.9 0.0
29/12:00am 13.0 11.9 11.9 93 0.6 S 9 11 5 6 1024.1 1024.0 0.0
 
Date/Time
CST
Temp
°C
App
Temp
°C
Dew
Point
Rel
Hum
%
Delta-T
°C
Wind Press
QNH
hPa
Press
MSL
hPa
Rain
since 9 am
mm
Dir
 
Spd
km/h
Gust
km/h
Spd
kts
Gust
kts
28/11:30pm 13.2 11.7 11.9 92 0.7 WSW 11 13 6 7 1024.1 1024.0 0.0
28/11:00pm 13.8 13.2 12.2 90 0.9 SW 7 9 4 5 1024.0 1023.9 0.0
28/10:30pm 13.8 13.3 12.2 90 0.9 WSW 6 7 3 4 1024.1 1024.0 0.0
28/10:00pm 14.1 14.1 12.3 89 1.0 SSE 4 6 2 3 1024.1 1024.0 0.0
28/09:30pm 14.1 14.0 12.1 88 1.1 SSE 4 9 2 5 1023.6 1023.5 0.0
28/09:00pm 14.5 15.3 12.4 87 1.1 CALM 0 0 0 0 1023.7 1023.6 0.0
28/08:30pm 14.4 15.1 12.1 86 1.2 CALM 0 0 0 0 1023.6 1023.5 0.0
28/08:00pm 14.5 15.2 12.2 86 1.3 CALM 0 0 0 0 1023.4 1023.3 0.0
28/07:30pm 14.4 15.0 11.9 85 1.3 CALM 0 0 0 0 1022.9 1022.9 0.0
28/07:00pm 14.9 13.9 12.2 84 1.5 S 9 11 5 6 1022.6 1022.6 0.0
28/06:30pm 15.2 13.8 12.1 82 1.7 SSW 11 13 6 7 1022.4 1022.4 0.0
28/06:00pm 15.7 14.6 12.1 79 2.0 S 9 11 5 6 1021.9 1021.9 0.0
28/05:30pm 16.2 14.4 12.0 76 2.3 S 13 17 7 9 1021.8 1021.8 0.0
28/05:00pm 16.8 15.3 11.9 73 2.7 S 11 15 6 8 1022.0 1022.0 0.0
28/04:30pm 17.1 14.8 11.6 70 3.0 S 15 19 8 10 1021.5 1021.5 0.0
28/04:00pm 17.5 14.7 11.3 67 3.4 S 17 20 9 11 1021.1 1021.1 0.0
28/03:30pm 17.4 14.6 11.4 68 3.3 S 17 22 9 12 1021.0 1021.0 0.0
28/03:00pm 18.0 14.6 10.4 61 4.1 S 19 22 10 12 1020.6 1020.6 0.0
28/02:30pm 18.2 15.0 9.8 58 4.4 S 17 22 9 12 1020.8 1020.8 0.0
28/02:00pm 18.8 16.4 10.1 57 4.7 S 13 19 7 10 1020.9 1020.9 0.0
28/01:30pm 19.1 16.6 10.9 59 4.4 S 15 19 8 10 1021.0 1021.0 0.0
28/01:00pm 18.5 17.3 11.6 64 3.8 SSE 9 15 5 8 1021.4 1021.4 0.0
28/12:30pm 18.4 17.4 12.4 68 3.3 SSE 9 13 5 7 1021.7 1021.7 0.0
28/12:00pm 18.1 19.2 17.1 94 0.6 S 7 13 4 7 1022.1 1022.1 0.0
28/11:30am 15.7 16.4 15.7 100 0.0 E 6 11 3 6 1022.1 1022.1 0.0
28/11:00am 15.3 17.0 15.3 100 0.0 CALM 0 0 0 0 1022.2 1022.2 0.0
28/10:44am 14.6 16.1 14.6 100 0.0 CALM 0 0 0 0 1022.2 1022.2 0.0
28/10:38am 14.5 15.6 14.5 100 0.0 NNW 2 7 1 4 1022.3 1022.3 0.0
28/10:30am 14.0 13.6 14.0 100 0.0 N 9 13 5 7 1022.5 1022.5 0.0
28/10:00am 13.0 12.6 13.0 100 0.0 N 7 9 4 5 1022.6 1022.6 0.0
28/09:37am 11.9 11.2 11.9 100 0.0 NNW 7 9 4 5 1022.5 1022.5 0.0
28/09:30am 11.5 10.3 11.5 100 0.0 NNW 9 11 5 6 1022.3 1022.3 0.0
28/09:00am 10.1 8.5 10.1 100 0.0 N 9 13 5 7 1022.0 1022.0 0.4
28/08:30am 8.8 6.8 8.8 100 0.0 NW 9 9 5 5 1021.8 1021.8 0.4
28/08:00am 8.6 7.0 8.6 100 0.0 NNW 7 9 4 5 1021.7 1021.7 0.4
28/07:30am 9.4 8.0 9.4 100 0.0 SW 7 9 4 5 1021.1 1021.1 0.4
28/07:00am 9.2 6.6 9.2 100 0.0 SW 13 15 7 8 1020.7 1020.7 0.4
28/06:30am 9.9 7.8 9.9 100 0.0 SW 11 13 6 7 1020.6 1020.6 0.4
28/06:21am 10.2 8.6 10.2 100 0.0 WSW 9 11 5 6 1020.7 1020.7 0.4
28/06:08am 9.7 8.3 9.7 100 0.0 WNW 7 9 4 5 1020.7 1020.7 0.4
28/06:00am 9.5 7.7 9.5 100 0.0 WNW 9 9 5 5 1020.7 1020.7 0.4
28/05:58am 9.5 7.7 9.5 100 0.0 WNW 9 9 5 5 1020.7 1020.7 0.4
28/05:30am 10.5 8.6 10.5 100 0.0 WSW 11 13 6 7 1020.6 1020.6 0.4
28/05:05am 10.6 9.1 10.6 100 0.0 W 9 9 5 5 1020.2 1020.2 0.4
28/05:00am 10.5 9.0 10.5 100 0.0 W 9 9 5 5 1020.2 1020.2 0.4
28/04:30am 10.8 9.4 10.8 100 0.0 W 9 9 5 5 1020.0 1020.0 0.4
28/04:28am 10.8 9.4 10.8 100 0.0 W 9 9 5 5 1019.9 1019.9 0.4
28/04:00am 11.3 9.6 11.3 100 0.0 W 11 13 6 7 1019.9 1019.9 0.2
28/03:30am 11.3 10.4 11.3 100 0.0 NNW 7 9 4 5 1020.0 1020.0 0.2
28/03:00am 11.6 10.8 11.6 100 0.0 WNW 7 9 4 5 1020.0 1020.0 0.2
28/02:30am 11.7 12.2 11.7 100 0.0 CALM 0 0 0 0 1020.0 1020.0 0.2
28/02:00am 12.1 11.0 12.1 100 0.0 SW 9 13 5 7 1019.9 1019.9 0.2
28/01:30am 11.4 10.1 11.4 100 0.0 SW 9 15 5 8 1019.8 1019.8 0.2
28/01:00am 13.0 12.2 13.0 100 0.0 NE 9 11 5 6 1019.4 1019.4 0.2
28/12:30am 11.4 8.9 11.2 99 0.1 NE 15 17 8 9 1019.8 1019.8 0.2
28/12:26am 11.3 9.2 11.1 99 0.1 NE 13 17 7 9 1019.8 1019.8 0.2
28/12:00am 11.4 10.5 11.2 99 0.1 ENE 7 7 4 4 1020.1 1020.1 0.2
 
Date/Time
CST
Temp
°C
App
Temp
°C
Dew
Point
Rel
Hum
%
Delta-T
°C
Wind Press
QNH
hPa
Press
MSL
hPa
Rain
since 9 am
mm
Dir
 
Spd
km/h
Gust
km/h
Spd
kts
Gust
kts
27/11:30pm 11.5 10.6 11.3 99 0.1 E 7 9 4 5 1020.2 1020.2 0.2
27/11:18pm 11.8 11.0 11.6 99 0.1 E 7 9 4 5 1020.2 1020.2 0.2
27/11:00pm 11.5 10.6 11.3 99 0.1 E 7 9 4 5 1020.2 1020.2 0.2
27/10:30pm 12.0 11.4 11.8 99 0.1 ESE 6 7 3 4 1020.7 1020.7 0.2
27/10:14pm 11.7 11.0 11.5 99 0.1 SE 6 7 3 4 1020.6 1020.6 0.2
27/10:09pm 11.9 11.3 11.7 99 0.1 SSE 6 9 3 5 1020.5 1020.5 0.2
27/10:00pm 12.3 11.6 12.1 99 0.1 ESE 7 9 4 5 1020.5 1020.5 0.2
27/09:55pm 11.8 11.2 11.6 99 0.1 E 6 9 3 5 1020.5 1020.5 0.2
27/09:30pm 11.3 10.3 11.1 99 0.1 ENE 7 7 4 4 1020.5 1020.5 0.2
27/09:09pm 11.3 10.5 11.1 99 0.1 E 6 7 3 4 1020.3 1020.3 0.2
27/09:00pm 11.5 10.8 11.3 99 0.1 ESE 6 7 3 4 1020.3 1020.3 0.2
27/08:45pm 12.1 11.4 11.9 99 0.1 SSE 7 9 4 5 1020.3 1020.3 0.2
27/08:30pm 13.1 12.3 12.9 99 0.1 S 9 11 5 6 1020.2 1020.2 0.2
27/08:00pm 13.5 12.5 13.3 99 0.1 SSW 11 11 6 6 1019.9 1019.9 0.2
27/07:30pm 14.5 14.2 14.3 99 0.1 S 9 9 5 5 1019.9 1019.9 0.2
27/07:26pm 14.3 13.9 14.0 98 0.2 S 9 11 5 6 1019.9 1019.9 0.2
27/07:00pm 14.8 14.7 14.0 95 0.5 S 7 7 4 4 1019.9 1019.9 0.2
27/06:30pm 14.7 14.4 13.2 91 0.8 SE 7 9 4 5 1019.8 1019.8 0.2
27/06:00pm 15.9 15.1 14.1 89 1.0 SSE 11 15 6 8 1019.1 1019.1 0.2
27/05:30pm 17.1 15.7 14.6 85 1.4 S 15 19 8 10 1019.0 1019.0 0.2
27/05:00pm 18.3 16.6 14.8 80 2.0 S 17 20 9 11 1019.0 1019.0 0.2
27/04:30pm 19.8 17.7 14.6 72 3.0 S 19 24 10 13 1019.0 1019.0 0.2
27/04:00pm 20.6 19.0 13.8 65 3.9 SSW 15 20 8 11 1019.1 1019.1 0.2
27/03:30pm 21.3 18.9 10.2 49 6.0 WNW 13 17 7 9 1019.1 1019.1 0.2
27/03:00pm 21.7 19.7 11.4 52 5.7 WNW 13 19 7 10 1019.2 1019.2 0.2
27/02:30pm 21.8 20.0 12.1 54 5.5 WNW 13 20 7 11 1019.3 1019.3 0.2
27/02:00pm 20.9 18.6 11.8 56 5.1 NW 15 24 8 13 1019.5 1019.5 0.2
27/01:30pm 21.0 18.8 12.2 57 4.9 NNW 15 22 8 12 1019.9 1019.9 0.2
27/01:00pm 21.1 20.1 13.3 61 4.5 NW 11 20 6 11 1020.3 1020.3 0.2
27/12:30pm 20.2 18.7 13.2 64 4.0 WNW 13 20 7 11 1021.0 1021.0 0.0
27/12:00pm 19.5 18.5 13.4 68 3.5 WNW 11 17 6 9 1021.5 1021.5 0.0
27/11:30am 18.4 17.1 13.7 74 2.7 WNW 13 17 7 9 1021.9 1021.9 0.0
27/11:00am 17.7 16.4 13.6 77 2.3 NNW 13 17 7 9 1022.2 1022.2 0.0
27/10:30am 16.5 15.6 14.9 90 0.9 NW 13 17 7 9 1022.4 1022.4 0.0
27/10:00am 14.5 13.4 14.3 99 0.1 NW 13 15 7 8 1022.3 1022.3 0.0
27/09:30am 13.1 11.6 13.1 100 0.0 NW 13 15 7 8 1022.3 1022.3 0.0
27/09:00am 11.7 9.8 11.7 100 0.0 NNW 13 17 7 9 1022.1 1022.1 0.4
27/08:30am 10.2 7.8 10.2 100 0.0 NNW 13 17 7 9 1022.1 1022.1 0.4
27/08:00am 8.9 6.2 8.8 99 0.0 NW 13 17 7 9 1021.9 1021.9 0.4
27/07:30am 9.1 6.1 9.1 100 0.0 NW 15 20 8 11 1021.7 1021.7 0.4
27/07:00am 9.0 6.3 8.9 99 0.0 NW 13 17 7 9 1021.5 1021.5 0.4
27/06:30am 8.8 6.0 8.7 99 0.0 NW 13 15 7 8 1021.2 1021.2 0.4
27/06:00am 8.8 6.0 8.7 99 0.0 NW 13 17 7 9 1021.2 1021.2 0.4
27/05:30am 8.8 6.0 8.7 99 0.0 NW 13 15 7 8 1021.2 1021.2 0.4
27/05:00am 9.2 6.5 9.1 99 0.0 NNW 13 17 7 9 1021.1 1021.1 0.2
27/04:30am 9.9 7.4 9.8 99 0.1 NW 13 17 7 9 1021.3 1021.3 0.2
27/04:00am 10.1 7.3 9.9 99 0.1 NW 15 17 8 9 1021.1 1021.1 0.2
27/03:30am 9.8 7.3 9.7 99 0.0 NW 13 15 7 8 1021.3 1021.3 0.2
27/03:00am 10.2 7.4 10.0 99 0.1 NNW 15 19 8 10 1021.4 1021.4 0.2
27/02:30am 10.1 7.3 9.9 99 0.1 NNW 15 17 8 9 1021.5 1021.5 0.2
27/02:00am 9.7 7.2 9.6 99 0.1 NNW 13 15 7 8 1021.7 1021.7 0.2
27/01:30am 10.2 8.2 10.0 99 0.1 NNW 11 13 6 7 1021.8 1021.8 0.2
27/01:00am 11.4 8.9 11.2 99 0.1 NNW 15 17 8 9 1022.1 1022.1 0.2
27/12:30am 11.5 9.1 11.3 99 0.1 N 15 17 8 9 1022.4 1022.4 0.2
27/12:00am 11.7 9.3 11.5 99 0.1 NNW 15 17 8 9 1022.6 1022.6 0.2
 
Date/Time
CST
Temp
°C
App
Temp
°C
Dew
Point
Rel
Hum
%
Delta-T
°C
Wind Press
QNH
hPa
Press
MSL
hPa
Rain
since 9 am
mm
Dir
 
Spd
km/h
Gust
km/h
Spd
kts
Gust
kts
26/11:30pm 11.1 8.6 10.9 99 0.1 NNW 15 15 8 8 1022.8 1022.8 0.2
26/11:00pm 11.6 9.6 11.4 99 0.1 NNW 13 15 7 8 1022.8 1022.8 0.2
26/10:30pm 11.7 9.7 11.5 99 0.1 N 13 17 7 9 1022.9 1022.9 0.2
26/10:00pm 12.1 9.8 11.9 99 0.1 N 15 17 8 9 1022.7 1022.7 0.2
26/09:30pm 12.3 10.1 12.0 98 0.2 NNE 15 19 8 10 1022.5 1022.5 0.2
26/09:00pm 12.7 10.9 12.2 97 0.3 NE 13 13 7 7 1022.5 1022.5 0.2
26/08:30pm 13.5 11.9 12.9 96 0.3 NE 13 15 7 8 1022.5 1022.5 0.2
26/08:00pm 13.8 13.0 12.9 94 0.5 ENE 9 11 5 6 1022.4 1022.4 0.2
26/07:30pm 14.1 12.6 13.0 93 0.6 ENE 13 13 7 7 1022.0 1022.0 0.2
26/07:00pm 14.4 13.3 13.0 91 0.8 ENE 11 11 6 6 1021.9 1021.9 0.2
26/06:30pm 14.9 14.1 12.9 88 1.1 ENE 9 11 5 6 1021.6 1021.6 0.2
26/06:00pm 15.9 15.2 13.2 84 1.5 SE 9 11 5 6 1021.3 1021.3 0.2

Other Formats:

Comma delimited format used in spreadsheet applications
http://www.bom.gov.au/fwo/IDS60801/IDS60801.94651.axf

JavaScript Object Notation format (JSON) in row-major order
http://www.bom.gov.au/fwo/IDS60801/IDS60801.94651.json